Portada
METAR-TAF:

METAR-TAF

Aeropuertos :

Lae Nadzab

Lae, Papúa Nueva Guinea

latitud: 6-34-11S, longitud: 146-43-34E, altitud: 73 m

Observación

El informe se hizo hace 4 horas y 24 minutos, a las 02:00 UTC
Viento 5 kt del este con ráfagas de 10 kt
Temperatura 29°C
Humedad 66%
Presión 1009 hPa
Visibilidad 10 km o más
Nubes dispersas a una altura de 2000 ft
Cielo nuboso a una altura de 5000 ft

METAR: AYNZ 200200Z 08005G10KT 9999 SCT020 BKN050 29/22 Q1009

Hora: 16:24 (06:24 UTC)


TAF: falta

Observaciones y pronósticos meteorológicos de más de 4000 aeropuertos (mensajes METAR y TAF).

Los puntos amarillos y rojos representan las estaciones disponibles.

Ponga el ratón en el punto deseado para ver el nombre de la estación.

Haga clic para ver las observaciones y los pronósticos meteorológicos.

Para cambiar el mapa : haga clic en los botones verdes con una cruz de color negro para hacer un zoom, en el botón verde con un guión para alejar o en las flechas verdes para mapas adyacentes.


METAR-TAF: